createdAt,value
2017-11-21T00:01:57.216Z,9.90
2017-11-21T00:04:26.923Z,9.90
2017-11-21T00:06:56.367Z,9.90
2017-11-21T00:09:27.039Z,10.00
2017-11-21T00:11:56.747Z,10.00
2017-11-21T00:14:25.989Z,10.10
2017-11-21T00:16:55.899Z,10.10
2017-11-21T00:19:26.429Z,10.10
2017-11-21T00:21:56.961Z,10.10
2017-11-21T00:24:27.085Z,10.10
2017-11-21T00:26:57.231Z,10.10
2017-11-21T00:29:26.553Z,10.10
2017-11-21T00:31:55.689Z,10.10
2017-11-21T00:34:27.197Z,10.10
2017-11-21T00:36:58.194Z,10.10
2017-11-21T00:39:27.696Z,10.10
2017-11-21T00:41:59.062Z,10.10
2017-11-21T00:44:29.955Z,10.10
2017-11-21T00:47:05.446Z,10.10
2017-11-21T00:49:38.880Z,10.10
2017-11-21T00:52:09.252Z,10.20
2017-11-21T00:54:38.253Z,10.20
2017-11-21T00:57:07.299Z,10.20
2017-11-21T00:59:36.400Z,10.20
2017-11-21T01:02:06.963Z,10.20
2017-11-21T01:04:37.317Z,10.20
2017-11-21T01:07:06.486Z,10.20
2017-11-21T01:09:36.956Z,10.20
2017-11-21T01:12:06.713Z,10.20
2017-11-21T01:14:37.174Z,10.20
2017-11-21T01:17:06.768Z,10.20
2017-11-21T01:19:37.944Z,10.20
2017-11-21T01:22:08.455Z,10.10
2017-11-21T01:24:39.165Z,10.10
2017-11-21T01:27:08.688Z,10.20
2017-11-21T01:29:38.069Z,10.20
2017-11-21T01:32:07.922Z,10.20
2017-11-21T01:34:37.503Z,10.20
2017-11-21T01:37:07.390Z,10.20
2017-11-21T01:39:36.727Z,10.20
2017-11-21T01:42:06.046Z,10.20
2017-11-21T01:44:36.120Z,10.20
2017-11-21T01:47:05.865Z,10.20
2017-11-21T01:49:35.128Z,10.20
2017-11-21T01:52:04.772Z,10.20
2017-11-21T01:54:34.189Z,10.10
2017-11-21T01:57:03.303Z,10.20
2017-11-21T01:59:32.759Z,10.10
2017-11-21T02:02:02.772Z,10.20
2017-11-21T02:04:40.285Z,10.10
2017-11-21T02:07:09.682Z,10.20
2017-11-21T02:09:38.942Z,10.20
2017-11-21T02:12:22.430Z,10.20
2017-11-21T02:15:02.031Z,10.10
2017-11-21T02:17:32.122Z,10.10
2017-11-21T02:20:01.691Z,10.20
2017-11-21T02:22:32.870Z,10.20
2017-11-21T02:25:02.447Z,10.20
2017-11-21T02:27:31.983Z,10.20
2017-11-21T02:30:01.293Z,10.30
2017-11-21T02:32:30.420Z,10.20
2017-11-21T02:35:01.367Z,10.30
2017-11-21T02:37:32.061Z,10.30
2017-11-21T02:40:01.857Z,10.30
2017-11-21T02:42:31.202Z,10.30
2017-11-21T02:45:01.553Z,10.30
2017-11-21T02:47:30.791Z,10.30
2017-11-21T02:50:00.154Z,10.30
2017-11-21T02:52:29.763Z,10.30
2017-11-21T02:54:59.089Z,10.30
2017-11-21T02:57:28.411Z,10.40
2017-11-21T02:59:57.751Z,10.30
2017-11-21T03:02:27.355Z,10.30
2017-11-21T03:04:57.123Z,10.30
2017-11-21T03:07:26.344Z,10.30
2017-11-21T03:09:56.289Z,10.40
2017-11-21T03:12:25.909Z,10.40
2017-11-21T03:14:55.324Z,10.40
2017-11-21T03:17:24.773Z,10.40
2017-11-21T03:19:55.290Z,10.40
2017-11-21T03:26:39.422Z,10.40
2017-11-21T03:29:08.627Z,10.40
2017-11-21T03:31:37.993Z,10.40
2017-11-21T03:34:07.887Z,10.40
2017-11-21T03:36:38.807Z,10.40
2017-11-21T03:39:09.123Z,10.50
2017-11-21T03:41:38.575Z,10.50
2017-11-21T03:44:08.347Z,10.40
2017-11-21T03:46:38.873Z,10.40
2017-11-21T03:49:08.845Z,10.50
2017-11-21T03:51:38.047Z,10.50
2017-11-21T03:54:07.212Z,10.50
2017-11-21T03:56:36.611Z,10.40
2017-11-21T03:59:06.102Z,10.50
2017-11-21T04:01:35.425Z,10.50
2017-11-21T04:04:05.642Z,10.50
2017-11-21T04:06:35.450Z,10.50
2017-11-21T04:09:05.377Z,10.60
2017-11-21T04:11:35.462Z,10.50
2017-11-21T04:14:04.759Z,10.50
2017-11-21T04:16:34.286Z,10.60
2017-11-21T04:19:04.391Z,10.50
2017-11-21T04:21:33.939Z,10.50
2017-11-21T04:24:03.180Z,10.60
2017-11-21T04:26:32.453Z,10.60
2017-11-21T04:29:01.735Z,10.70
2017-11-21T04:31:31.519Z,10.70
2017-11-21T04:34:00.903Z,10.70
2017-11-21T04:36:30.006Z,10.70
2017-11-21T04:38:59.251Z,10.70
2017-11-21T04:41:28.291Z,10.70
2017-11-21T04:43:57.316Z,10.70
2017-11-21T04:46:27.207Z,10.70
2017-11-21T04:48:56.237Z,10.70
2017-11-21T04:51:26.121Z,10.80
2017-11-21T04:53:55.146Z,10.80
2017-11-21T04:56:24.353Z,10.80
2017-11-21T04:58:53.614Z,10.70
2017-11-21T05:01:23.712Z,10.80
2017-11-21T05:03:52.774Z,10.80
2017-11-21T05:06:22.022Z,10.80
2017-11-21T05:08:50.973Z,10.80
2017-11-21T05:11:20.452Z,10.80
2017-11-21T05:13:50.396Z,10.80
2017-11-21T05:16:19.726Z,10.80
2017-11-21T05:18:49.728Z,10.80
2017-11-21T05:21:19.057Z,10.80
2017-11-21T05:23:48.357Z,10.90
2017-11-21T05:26:17.406Z,10.90
2017-11-21T05:28:46.433Z,10.90
2017-11-21T05:31:16.602Z,10.90
2017-11-21T05:33:45.754Z,10.90
2017-11-21T05:36:15.409Z,10.90
2017-11-21T05:38:44.614Z,10.90
2017-11-21T05:41:13.799Z,10.90
2017-11-21T05:43:42.922Z,10.90
2017-11-21T05:46:12.073Z,10.90
2017-11-21T05:48:42.392Z,11.00
2017-11-21T05:51:11.688Z,10.90
2017-11-21T05:53:40.835Z,10.90
2017-11-21T05:56:10.082Z,10.90
2017-11-21T05:58:39.265Z,10.90
2017-11-21T06:01:08.761Z,10.90
2017-11-21T06:03:37.989Z,10.90
2017-11-21T06:06:08.013Z,10.90
2017-11-21T06:08:38.063Z,11.00
2017-11-21T06:11:07.191Z,11.00
2017-11-21T06:13:36.838Z,11.00
2017-11-21T06:16:06.832Z,11.00
2017-11-21T06:18:36.051Z,11.00
2017-11-21T06:21:06.232Z,11.00
2017-11-21T06:23:35.345Z,11.00
2017-11-21T06:26:04.480Z,11.00
2017-11-21T06:28:33.621Z,10.90
2017-11-21T06:31:02.611Z,10.90
2017-11-21T06:33:31.933Z,10.90
2017-11-21T06:36:01.191Z,10.90
2017-11-21T06:38:34.570Z,10.90
2017-11-21T06:41:08.276Z,10.90
2017-11-21T06:43:38.070Z,10.80
2017-11-21T06:46:07.360Z,10.80
2017-11-21T06:48:37.373Z,10.70
2017-11-21T06:51:07.771Z,10.70
2017-11-21T06:53:38.211Z,10.70
2017-11-21T06:56:08.692Z,10.70
2017-11-21T06:58:39.188Z,10.70
2017-11-21T07:01:08.314Z,10.60
2017-11-21T07:03:37.715Z,10.70
2017-11-21T07:06:08.689Z,10.60
2017-11-21T07:08:38.773Z,10.60
2017-11-21T07:11:08.020Z,10.60
2017-11-21T07:13:39.147Z,10.60
2017-11-21T07:16:09.072Z,10.60
2017-11-21T07:18:38.669Z,10.60
2017-11-21T07:21:07.807Z,10.60
2017-11-21T07:23:37.632Z,10.60
2017-11-21T07:26:07.905Z,10.60
2017-11-21T07:28:37.054Z,10.50
2017-11-21T07:31:07.150Z,10.60
2017-11-21T07:33:36.708Z,10.60
2017-11-21T07:36:06.334Z,10.60
2017-11-21T07:38:35.702Z,10.60
2017-11-21T07:41:04.909Z,10.60
2017-11-21T07:43:34.223Z,10.60
2017-11-21T07:46:05.890Z,10.60
2017-11-21T07:48:36.150Z,10.60
2017-11-21T07:51:06.271Z,10.60
2017-11-21T07:53:35.542Z,10.70
2017-11-21T07:56:04.602Z,10.70
2017-11-21T07:58:33.815Z,10.60
2017-11-21T08:01:02.846Z,10.70
2017-11-21T08:03:32.394Z,10.70
2017-11-21T08:06:01.479Z,10.70
2017-11-21T08:08:30.491Z,10.70
2017-11-21T08:10:59.944Z,10.70
2017-11-21T08:13:29.749Z,10.70
2017-11-21T08:15:59.448Z,10.70
2017-11-21T08:18:28.560Z,10.80
2017-11-21T08:20:57.844Z,10.80
2017-11-21T08:23:26.869Z,10.80
2017-11-21T08:25:56.758Z,10.80
2017-11-21T08:28:26.042Z,10.80
2017-11-21T08:30:55.156Z,10.80
2017-11-21T08:33:24.310Z,10.80
2017-11-21T08:35:53.342Z,10.80
2017-11-21T08:38:22.489Z,10.90
2017-11-21T08:40:59.106Z,10.90
2017-11-21T08:43:34.785Z,10.90
2017-11-21T08:46:10.032Z,10.90
2017-11-21T08:48:39.581Z,10.90
2017-11-21T08:51:15.436Z,10.90
2017-11-21T08:54:00.293Z,10.90
2017-11-21T08:56:29.653Z,11.00
2017-11-21T08:58:59.696Z,11.10
2017-11-21T09:01:28.875Z,11.10
2017-11-21T09:03:58.456Z,11.10
2017-11-21T09:06:28.532Z,11.30
2017-11-21T09:08:58.125Z,11.30
2017-11-21T09:11:27.278Z,11.30
2017-11-21T09:13:56.426Z,11.30
2017-11-21T09:16:25.744Z,11.30
2017-11-21T09:18:54.835Z,11.20
2017-11-21T09:21:23.857Z,11.20
2017-11-21T09:23:52.978Z,11.20
2017-11-21T09:26:22.982Z,11.30
2017-11-21T09:28:52.078Z,11.30
2017-11-21T09:31:21.339Z,11.30
2017-11-21T09:33:50.607Z,11.30
2017-11-21T09:36:19.759Z,11.30
2017-11-21T09:38:49.063Z,11.40
2017-11-21T09:41:33.044Z,11.40
2017-11-21T09:44:13.034Z,11.40
2017-11-21T09:46:43.049Z,11.40
2017-11-21T09:49:16.961Z,11.40
2017-11-21T09:51:51.421Z,11.50
2017-11-21T09:54:25.682Z,11.50
2017-11-21T09:56:55.023Z,11.50
2017-11-21T09:59:24.139Z,11.50
2017-11-21T10:01:53.374Z,11.40
2017-11-21T10:04:24.454Z,11.40
2017-11-21T10:06:53.768Z,11.40
2017-11-21T10:09:23.523Z,11.30
2017-11-21T10:11:52.852Z,11.30
2017-11-21T10:14:22.280Z,11.40
2017-11-21T10:16:52.083Z,11.30
2017-11-21T10:19:23.025Z,11.30
2017-11-21T10:21:52.753Z,11.30
2017-11-21T10:24:24.073Z,11.30
2017-11-21T10:26:54.033Z,11.40
2017-11-21T10:29:25.089Z,11.50
2017-11-21T10:31:55.140Z,11.50
2017-11-21T10:34:24.841Z,11.50
2017-11-21T10:36:55.669Z,11.40
2017-11-21T10:39:26.148Z,11.50
2017-11-21T10:41:58.057Z,11.50
2017-11-21T10:44:28.331Z,11.50
2017-11-21T10:46:58.798Z,11.50
2017-11-21T10:49:28.924Z,11.50
2017-11-21T10:52:00.293Z,11.40
2017-11-21T10:54:31.245Z,11.50
2017-11-21T10:57:06.937Z,11.40
2017-11-21T10:59:37.082Z,11.50
2017-11-21T11:02:06.331Z,11.50
2017-11-21T11:04:36.123Z,11.60
2017-11-21T11:07:06.801Z,11.40
2017-11-21T11:09:36.186Z,11.40
2017-11-21T11:12:07.412Z,11.30
2017-11-21T11:14:38.928Z,11.30
2017-11-21T11:17:09.849Z,11.30
2017-11-21T11:19:40.360Z,11.30
2017-11-21T11:22:10.491Z,11.30
2017-11-21T11:24:41.829Z,11.40
2017-11-21T11:27:11.370Z,11.30
2017-11-21T11:29:41.558Z,11.40
2017-11-21T11:32:12.145Z,11.50
2017-11-21T11:34:41.375Z,11.40
2017-11-21T11:37:11.360Z,11.50
2017-11-21T11:39:44.933Z,11.40
2017-11-21T11:42:16.137Z,11.60
2017-11-21T11:44:47.968Z,11.50
2017-11-21T11:47:21.087Z,11.40
2017-11-21T11:49:55.891Z,11.50
2017-11-21T13:36:54.320Z,11.90
2017-11-21T13:39:26.408Z,11.90
2017-11-21T13:42:08.035Z,11.90
2017-11-21T13:44:44.216Z,11.90
2017-11-21T13:47:15.021Z,11.90
2017-11-21T13:49:45.380Z,11.90
2017-11-21T13:52:16.330Z,11.90
2017-11-21T13:54:47.472Z,11.90
2017-11-21T13:57:28.405Z,11.80
2017-11-21T13:59:59.050Z,11.90
2017-11-21T14:02:29.793Z,11.90
2017-11-21T14:05:00.189Z,11.90
2017-11-21T14:07:30.382Z,11.90
2017-11-21T14:10:02.127Z,11.90
2017-11-21T14:12:45.598Z,11.90
2017-11-21T14:18:34.063Z,12.00
2017-11-21T14:21:04.586Z,12.00
2017-11-21T14:23:36.903Z,11.90
2017-11-21T14:26:13.204Z,11.90
2017-11-21T14:28:43.492Z,11.90
2017-11-21T14:31:16.258Z,11.90
2017-11-21T14:33:49.908Z,11.80
2017-11-21T14:36:44.408Z,11.90
2017-11-21T14:39:25.514Z,11.90
2017-11-21T14:42:36.981Z,12.00
2017-11-21T14:46:01.255Z,12.00
2017-11-21T14:48:45.362Z,12.00
2017-11-21T14:51:36.222Z,12.00
2017-11-21T14:54:10.701Z,12.00
2017-11-21T14:56:45.802Z,12.10
2017-11-21T14:59:25.525Z,12.00
2017-11-21T15:02:04.230Z,12.00
2017-11-21T15:04:41.998Z,12.00
2017-11-21T15:07:15.520Z,12.00
2017-11-21T15:09:55.276Z,12.00
2017-11-21T15:12:33.606Z,12.00
2017-11-21T15:15:15.787Z,12.00
2017-11-21T15:17:48.127Z,12.00
2017-11-21T15:20:25.104Z,12.00
2017-11-21T15:22:57.718Z,12.10
2017-11-21T15:25:28.520Z,12.10
2017-11-21T15:27:59.187Z,12.00
2017-11-21T15:30:29.688Z,12.00
2017-11-21T15:33:00.476Z,12.00
2017-11-21T15:35:31.077Z,12.00
2017-11-21T15:38:03.237Z,12.10
2017-11-21T15:40:42.966Z,12.10
2017-11-21T15:43:13.958Z,12.20
2017-11-21T15:45:44.242Z,12.20
2017-11-21T15:51:47.443Z,12.10
2017-11-21T15:54:20.922Z,12.10
2017-11-21T15:56:53.762Z,12.10
2017-11-21T15:59:30.027Z,12.00
2017-11-21T16:07:45.835Z,12.10
2017-11-21T16:10:33.747Z,12.10
2017-11-21T16:13:04.689Z,12.10
2017-11-21T16:15:35.090Z,12.00
2017-11-21T16:18:05.148Z,12.00
2017-11-21T16:20:49.253Z,12.00
2017-11-21T16:23:23.520Z,12.00
2017-11-21T16:25:53.991Z,12.00
2017-11-21T16:28:24.666Z,12.00
2017-11-21T16:30:57.429Z,12.10
2017-11-21T16:33:27.755Z,12.10
2017-11-21T16:36:00.237Z,12.10
2017-11-21T16:38:36.647Z,12.10
2017-11-21T16:41:20.636Z,12.10
2017-11-21T16:43:57.638Z,12.10
2017-11-21T16:46:47.597Z,12.20
2017-11-21T16:49:38.973Z,12.30
2017-11-21T16:55:11.174Z,12.30
2017-11-21T16:57:48.354Z,12.20
2017-11-21T17:03:15.141Z,12.20
2017-11-21T17:05:46.890Z,12.20
2017-11-21T17:08:38.289Z,12.20
2017-11-21T17:11:33.883Z,12.20
2017-11-21T17:14:40.336Z,12.10
2017-11-21T17:17:18.339Z,11.90
2017-11-21T17:19:57.218Z,12.00
2017-11-21T17:23:01.743Z,12.00
2017-11-21T17:25:33.998Z,12.10
2017-11-21T17:32:17.029Z,12.10
2017-11-21T17:35:12.967Z,12.10
2017-11-21T17:38:04.382Z,12.10
2017-11-21T17:40:46.140Z,12.10
2017-11-21T17:43:22.672Z,12.10
2017-11-21T17:46:09.002Z,12.10
2017-11-21T17:52:17.130Z,12.10
2017-11-21T17:54:52.518Z,12.00
2017-11-21T17:57:25.057Z,12.00
2017-11-21T17:59:59.191Z,12.00
2017-11-21T18:02:34.473Z,12.10
2017-11-21T18:05:29.729Z,12.20
2017-11-21T18:11:12.082Z,12.30
2017-11-21T18:14:26.380Z,12.30
2017-11-21T18:20:02.239Z,12.20
2017-11-21T18:22:42.955Z,12.20
2017-11-21T18:25:19.726Z,12.30
2017-11-21T18:28:25.037Z,12.30
2017-11-21T18:44:45.870Z,12.30
2017-11-21T18:47:51.205Z,12.30
2017-11-21T19:13:31.245Z,12.40
2017-11-21T19:25:49.272Z,12.10
2017-11-21T19:31:22.334Z,12.20
2017-11-21T19:34:18.478Z,12.10
2017-11-21T19:36:56.118Z,12.20
2017-11-21T19:39:35.340Z,12.20
2017-11-21T19:42:20.820Z,12.10
2017-11-21T19:45:15.023Z,12.10
2017-11-21T19:48:07.262Z,12.10
2017-11-21T19:50:57.968Z,12.10
2017-11-21T19:53:45.020Z,12.10
2017-11-21T19:56:36.079Z,12.10
2017-11-21T20:05:45.173Z,12.00
2017-11-21T20:09:18.312Z,12.00
2017-11-21T20:12:01.001Z,12.10
2017-11-21T20:15:11.245Z,12.10
2017-11-21T20:17:51.830Z,12.10
2017-11-21T20:25:18.318Z,12.00
2017-11-21T20:31:26.189Z,11.90
2017-11-21T20:37:19.691Z,12.00
2017-11-21T20:46:00.289Z,12.00
2017-11-21T20:48:46.583Z,12.00
2017-11-21T20:55:11.791Z,11.70
2017-11-21T20:57:58.716Z,11.60
2017-11-21T21:03:41.156Z,11.60
2017-11-21T21:06:19.430Z,11.70
2017-11-21T21:09:23.095Z,11.80
2017-11-21T21:12:03.774Z,11.90
2017-11-21T21:14:46.602Z,11.90
2017-11-21T21:17:34.613Z,11.80
2017-11-21T21:20:22.580Z,11.70
2017-11-21T21:23:16.402Z,11.70
2017-11-21T21:26:17.183Z,11.60
2017-11-21T21:29:04.779Z,11.50
2017-11-21T21:35:47.286Z,11.50
2017-11-21T21:38:50.615Z,11.50
2017-11-21T21:48:16.621Z,11.50
2017-11-21T21:51:16.699Z,11.60
2017-11-21T21:54:08.083Z,11.60
2017-11-21T21:56:59.152Z,11.50
2017-11-21T22:02:29.430Z,11.50
2017-11-21T22:08:15.667Z,11.30
2017-11-21T22:10:58.927Z,11.40
2017-11-21T22:16:54.420Z,11.20
2017-11-21T22:19:28.665Z,11.20
2017-11-21T22:22:12.446Z,11.30
2017-11-21T22:25:05.553Z,11.30
2017-11-21T22:28:05.264Z,11.40
2017-11-21T22:33:36.000Z,11.40
2017-11-21T22:46:27.007Z,11.30
2017-11-21T22:53:50.642Z,11.20
2017-11-21T22:56:27.054Z,11.20
2017-11-21T22:59:03.309Z,11.10
2017-11-21T23:03:50.565Z,11.10
2017-11-21T23:06:26.841Z,11.10
2017-11-21T23:08:56.247Z,11.10
2017-11-21T23:11:25.376Z,11.20
2017-11-21T23:13:57.859Z,11.20
2017-11-21T23:16:29.704Z,11.20
2017-11-21T23:18:59.214Z,11.10
2017-11-21T23:21:28.443Z,11.10
2017-11-21T23:23:57.622Z,11.10
2017-11-21T23:26:27.161Z,11.20
2017-11-21T23:28:56.283Z,11.20
2017-11-21T23:31:29.270Z,11.10
2017-11-21T23:33:58.934Z,11.10
2017-11-21T23:36:28.207Z,11.00
2017-11-21T23:38:58.486Z,11.10
2017-11-21T23:41:27.931Z,11.10
2017-11-21T23:43:57.434Z,11.00
2017-11-21T23:46:28.873Z,11.00
2017-11-21T23:49:04.891Z,11.00
2017-11-21T23:51:35.929Z,11.00
2017-11-21T23:54:05.243Z,11.10
2017-11-21T23:56:35.525Z,11.00
2017-11-21T23:59:17.129Z,11.00
